Time;durP1;ratioP1;P1;durP2;ratioP2;P2;SDS_P1;SDS_P2;PMS_P1;PMS_P2;Temp;Humidity;BMP_temperature;BMP_pressure;BME280_temperature;BME280_humidity;BME280_pressure;Samples;Min_cycle;Max_cycle;Signal;HPM_P1;HPM_P2
2023/05/05 00:01:05;;;;;;;2.97;1.88;;;16.70;99.90;;;;;;5116097;28;20174;-58
2023/05/05 00:03:36;;;;;;;1.77;1.67;;;16.60;99.90;;;;;;5116004;28;20192;-58
2023/05/05 00:06:02;;;;;;;1.90;1.80;;;16.50;99.90;;;;;;5116166;28;20176;-58
2023/05/05 00:08:27;;;;;;;1.90;1.77;;;16.40;99.90;;;;;;5115913;28;20240;-58
2023/05/05 00:10:53;;;;;;;1.92;1.80;;;16.40;99.90;;;;;;5115867;28;20196;-58
2023/05/05 00:13:19;;;;;;;1.70;1.60;;;16.30;99.90;;;;;;5115777;28;20177;-58
2023/05/05 00:15:47;;;;;;;2.00;1.80;;;16.20;99.90;;;;;;5115752;28;20181;-58
2023/05/05 00:18:15;;;;;;;1.85;1.70;;;16.10;99.90;;;;;;5115166;28;20169;-58
2023/05/05 00:20:40;;;;;;;2.38;1.60;;;16.00;99.90;;;;;;5115081;28;20664;-58
2023/05/05 00:23:06;;;;;;;1.67;1.52;;;15.90;99.90;;;;;;5115797;28;20177;-58
2023/05/05 00:25:32;;;;;;;1.80;1.70;;;15.90;99.90;;;;;;5115520;28;20166;-58
2023/05/05 00:27:57;;;;;;;1.77;1.67;;;15.90;99.90;;;;;;5115528;28;20184;-58
2023/05/05 00:30:23;;;;;;;1.83;1.70;;;15.90;99.90;;;;;;5115437;28;20169;-58
2023/05/05 00:32:49;;;;;;;2.15;1.95;;;15.90;99.90;;;;;;5115529;28;20227;-58
2023/05/05 00:35:16;;;;;;;2.25;1.80;;;15.90;99.90;;;;;;5115479;28;20173;-58
2023/05/05 00:37:42;;;;;;;3.67;2.25;;;15.80;99.90;;;;;;5115428;28;20173;-58
2023/05/05 00:40:09;;;;;;;1.98;1.88;;;15.60;99.90;;;;;;5115388;28;20658;-58
2023/05/05 00:42:53;;;;;;;3.60;2.33;;;15.60;99.90;;;;;;5115275;28;20173;-58
2023/05/05 00:45:19;;;;;;;2.60;2.40;;;15.50;99.90;;;;;;5115393;28;20180;-59
2023/05/05 00:47:48;;;;;;;3.10;2.80;;;15.40;99.90;;;;;;5115190;28;20177;-58
2023/05/05 00:50:25;;;;;;;3.35;2.92;;;15.40;99.90;;;;;;5114928;28;20224;-58
2023/05/05 00:52:53;;;;;;;3.22;2.92;;;15.30;99.90;;;;;;5114966;28;20601;-58
2023/05/05 00:55:19;;;;;;;4.13;3.47;;;15.30;99.90;;;;;;5114950;28;20174;-58
2023/05/05 00:57:45;;;;;;;4.13;3.42;;;15.30;99.90;;;;;;5114946;28;20169;-59
2023/05/05 01:00:11;;;;;;;3.72;3.30;;;15.30;99.90;;;;;;5115088;28;20169;-59
2023/05/05 01:02:38;;;;;;;3.50;3.17;;;15.20;99.90;;;;;;5114878;28;20552;-58
2023/05/05 01:05:05;;;;;;;4.05;3.10;;;15.10;99.90;;;;;;5114798;28;20204;-58
2023/05/05 01:07:54;;;;;;;4.38;3.38;;;15.00;99.90;;;;;;5114899;28;20165;-58
2023/05/05 01:10:39;;;;;;;3.30;3.00;;;15.10;99.90;;;;;;5114940;28;20153;-58
2023/05/05 01:13:32;;;;;;;3.35;2.85;;;15.00;99.90;;;;;;5114779;28;20234;-58
2023/05/05 01:16:19;;;;;;;3.10;2.65;;;15.00;99.90;;;;;;5114484;28;20177;-58
2023/05/05 01:19:16;;;;;;;3.58;2.70;;;14.90;99.90;;;;;;5114746;28;20172;-58
2023/05/05 01:22:02;;;;;;;3.95;3.08;;;14.80;99.90;;;;;;5114598;28;20230;-58
2023/05/05 01:24:40;;;;;;;2.90;2.67;;;14.80;99.90;;;;;;5114388;28;20173;-59
2023/05/05 01:27:11;;;;;;;4.85;2.90;;;14.90;99.90;;;;;;5114291;28;20696;-58
2023/05/05 01:29:44;;;;;;;3.17;2.78;;;14.90;99.90;;;;;;5114138;28;20197;-58
2023/05/05 01:32:15;;;;;;;3.17;2.88;;;14.70;99.90;;;;;;5114467;28;20292;-59
2023/05/05 01:35:12;;;;;;;3.30;3.00;;;14.70;99.90;;;;;;5114303;28;20181;-58
2023/05/05 01:37:56;;;;;;;3.00;2.72;;;14.60;99.90;;;;;;5114290;28;20579;-58
2023/05/05 01:40:26;;;;;;;3.30;2.60;;;14.50;99.90;;;;;;5114394;28;20165;-58
2023/05/05 01:42:53;;;;;;;2.80;2.33;;;14.60;99.90;;;;;;5114143;28;20504;-58
2023/05/05 01:45:24;;;;;;;3.53;2.72;;;14.50;99.90;;;;;;5114119;28;20527;-59
2023/05/05 01:47:52;;;;;;;3.20;2.90;;;14.50;99.90;;;;;;5113870;28;20694;-59
2023/05/05 01:50:18;;;;;;;3.30;3.00;;;14.60;99.90;;;;;;5114177;28;20217;-59
2023/05/05 01:52:45;;;;;;;3.25;2.75;;;14.50;99.90;;;;;;5114071;28;20286;-58
2023/05/05 01:55:13;;;;;;;2.83;2.55;;;14.60;99.90;;;;;;5113986;28;20768;-59
2023/05/05 01:57:41;;;;;;;3.10;2.85;;;14.50;99.90;;;;;;5113895;28;20173;-58
2023/05/05 02:00:08;;;;;;;3.50;3.10;;;14.50;99.90;;;;;;5113741;28;20544;-58
2023/05/05 02:02:36;;;;;;;3.22;2.92;;;14.50;99.90;;;;;;5113988;28;20170;-58
2023/05/05 02:05:04;;;;;;;3.58;3.05;;;14.50;99.90;;;;;;5113754;28;20181;-58
2023/05/05 02:07:31;;;;;;;3.13;2.70;;;14.50;99.90;;;;;;5113849;28;20169;-58
2023/05/05 02:09:58;;;;;;;3.03;2.70;;;14.60;99.90;;;;;;5113762;28;20200;-58
2023/05/05 02:12:25;;;;;;;4.63;3.17;;;14.60;99.90;;;;;;5113529;28;20655;-58
2023/05/05 02:14:52;;;;;;;3.45;3.13;;;14.50;99.90;;;;;;5113566;28;20659;-58
2023/05/05 02:17:20;;;;;;;3.67;3.25;;;14.60;99.90;;;;;;5113792;28;20176;-58
2023/05/05 02:19:48;;;;;;;3.42;3.13;;;14.60;99.90;;;;;;5113729;28;20168;-58
2023/05/05 02:22:15;;;;;;;4.43;3.53;;;14.60;99.90;;;;;;5113602;28;20176;-58
2023/05/05 02:24:42;;;;;;;3.22;2.92;;;14.50;99.90;;;;;;5113551;28;20208;-58
2023/05/05 02:27:09;;;;;;;3.30;3.00;;;14.50;99.90;;;;;;5113525;28;20182;-58
2023/05/05 02:29:45;;;;;;;3.60;3.30;;;14.50;99.90;;;;;;5113358;28;20172;-58
2023/05/05 02:32:26;;;;;;;3.65;3.05;;;14.50;99.90;;;;;;5114030;28;20196;-58
2023/05/05 02:34:53;;;;;;;3.67;3.30;;;14.50;99.90;;;;;;5113549;28;20270;-58
2023/05/05 02:37:22;;;;;;;3.85;3.55;;;14.50;99.90;;;;;;5113433;28;20185;-58
2023/05/05 02:39:57;;;;;;;4.28;3.88;;;14.40;99.90;;;;;;5113174;28;20645;-58
2023/05/05 02:42:27;;;;;;;3.95;3.22;;;14.40;99.90;;;;;;5114930;28;20176;-58
2023/05/05 02:44:56;;;;;;;4.40;4.00;;;14.30;99.90;;;;;;5117783;28;20221;-58
2023/05/05 02:47:26;;;;;;;4.55;3.65;;;14.40;99.90;;;;;;5117456;28;20169;-58
2023/05/05 02:49:52;;;;;;;4.35;3.75;;;14.40;99.90;;;;;;5117201;28;20221;-58
2023/05/05 02:52:18;;;;;;;3.75;3.45;;;14.40;99.90;;;;;;5117228;28;20697;-58
2023/05/05 02:54:43;;;;;;;4.55;3.85;;;14.30;99.90;;;;;;5117524;28;20254;-58
2023/05/05 02:57:14;;;;;;;4.13;3.75;;;14.30;99.90;;;;;;5117258;28;20243;-58
2023/05/05 02:59:57;;;;;;;4.20;3.80;;;14.30;99.90;;;;;;5117537;28;20687;-58
2023/05/05 03:03:00;;;;;;;4.25;3.85;;;14.30;99.90;;;;;;5117166;28;20663;-58
2023/05/05 03:05:34;;;;;;;4.07;3.67;;;14.30;99.90;;;;;;5014504;28;20189;-58
2023/05/05 03:08:04;;;;;;;4.40;4.00;;;14.30;99.90;;;;;;5102976;28;20268;-58
2023/05/05 03:10:34;;;;;;;6.40;4.18;;;14.20;99.90;;;;;;5117479;28;20227;-58
2023/05/05 03:13:01;;;;;;;5.50;4.28;;;14.10;99.90;;;;;;5117064;28;20208;-58
2023/05/05 03:15:31;;;;;;;4.22;3.83;;;14.10;99.90;;;;;;5116804;28;20178;-58
2023/05/05 03:17:59;;;;;;;4.28;3.92;;;14.00;99.90;;;;;;5117078;28;20710;-58
2023/05/05 03:20:25;;;;;;;5.18;4.60;;;14.00;99.90;;;;;;5116948;28;20173;-58
2023/05/05 03:22:51;;;;;;;5.20;4.13;;;14.00;99.90;;;;;;5117152;28;20173;-59
2023/05/05 03:25:17;;;;;;;4.70;4.30;;;14.00;99.90;;;;;;5116693;28;20181;-58
2023/05/05 03:27:42;;;;;;;4.97;4.47;;;14.00;99.90;;;;;;5116568;28;20169;-58
2023/05/05 03:30:09;;;;;;;4.90;4.40;;;14.00;99.90;;;;;;5116642;28;20322;-58
2023/05/05 03:32:34;;;;;;;5.45;4.55;;;14.10;99.90;;;;;;5116707;28;20208;-58
2023/05/05 03:35:00;;;;;;;4.93;4.45;;;14.10;99.90;;;;;;5116642;28;20181;-58
2023/05/05 03:37:25;;;;;;;6.53;4.72;;;14.10;99.90;;;;;;5116617;28;20174;-58
2023/05/05 03:39:51;;;;;;;6.00;5.40;;;14.10;99.90;;;;;;5116558;28;20234;-58
2023/05/05 03:42:17;;;;;;;7.80;4.63;;;14.10;99.90;;;;;;5116462;28;20177;-58
2023/05/05 03:44:42;;;;;;;5.13;4.60;;;14.10;99.90;;;;;;5116593;28;20261;-58
2023/05/05 03:47:08;;;;;;;5.47;4.70;;;14.10;99.90;;;;;;5116593;28;20174;-58
2023/05/05 03:49:34;;;;;;;5.07;4.63;;;14.10;99.90;;;;;;5116153;28;20221;-58
2023/05/05 03:51:59;;;;;;;5.25;4.45;;;14.10;99.90;;;;;;5116176;28;20197;-58
2023/05/05 03:54:25;;;;;;;5.63;4.55;;;14.10;99.90;;;;;;5115528;28;20639;-58
2023/05/05 03:56:51;;;;;;;4.60;4.20;;;14.00;99.90;;;;;;5116083;28;20177;-58
2023/05/05 03:59:16;;;;;;;5.40;4.90;;;14.00;99.90;;;;;;5116035;28;20578;-58
2023/05/05 04:01:43;;;;;;;6.50;5.38;;;13.90;99.90;;;;;;5116253;28;20182;-59
2023/05/05 04:04:09;;;;;;;9.55;5.75;;;13.90;99.90;;;;;;5116068;28;20169;-58
2023/05/05 04:06:35;;;;;;;5.50;4.95;;;13.90;99.90;;;;;;5116073;28;20174;-58
2023/05/05 04:09:00;;;;;;;5.80;5.20;;;13.90;99.90;;;;;;5115894;28;20170;-58
2023/05/05 04:11:26;;;;;;;6.22;4.93;;;13.90;99.90;;;;;;5115722;28;20721;-58
2023/05/05 04:13:52;;;;;;;7.72;5.53;;;13.80;99.90;;;;;;5116034;28;20676;-58
2023/05/05 04:16:18;;;;;;;5.57;5.07;;;13.80;99.90;;;;;;5115996;28;20173;-58
2023/05/05 04:18:44;;;;;;;7.10;5.10;;;13.90;99.90;;;;;;5097793;28;20181;-58
2023/05/05 04:21:09;;;;;;;5.97;5.45;;;13.90;99.90;;;;;;5115773;28;20265;-58
2023/05/05 04:23:35;;;;;;;5.60;5.07;;;13.90;99.90;;;;;;5115689;28;20214;-58
2023/05/05 04:26:01;;;;;;;6.35;5.53;;;13.80;99.90;;;;;;5115633;28;20173;-58
2023/05/05 04:28:26;;;;;;;6.03;5.22;;;13.80;99.90;;;;;;5115490;28;20226;-58
2023/05/05 04:30:52;;;;;;;6.97;5.78;;;13.80;99.90;;;;;;5115590;28;20214;-58
2023/05/05 04:33:18;;;;;;;5.80;5.10;;;13.80;99.90;;;;;;5115603;28;20208;-58
2023/05/05 04:35:43;;;;;;;6.72;5.05;;;13.80;99.90;;;;;;5115487;28;20631;-58
2023/05/05 04:38:09;;;;;;;7.95;5.78;;;13.80;99.90;;;;;;5115460;28;20652;-59
2023/05/05 04:40:39;;;;;;;6.35;5.53;;;13.80;99.90;;;;;;5115293;28;20174;-58
2023/05/05 04:43:05;;;;;;;5.57;4.95;;;13.80;99.90;;;;;;5115121;28;20220;-59
2023/05/05 04:45:31;;;;;;;6.25;5.65;;;13.90;99.90;;;;;;5115376;28;20222;-59
2023/05/05 04:47:57;;;;;;;6.20;5.60;;;14.00;99.90;;;;;;5115320;28;20177;-59
2023/05/05 04:50:22;;;;;;;6.03;5.43;;;14.20;99.90;;;;;;5114865;28;20698;-59
2023/05/05 04:52:48;;;;;;;6.95;5.80;;;14.30;99.90;;;;;;5115029;28;20288;-58
2023/05/05 04:55:14;;;;;;;7.43;5.55;;;14.40;99.90;;;;;;5115037;28;20205;-59
2023/05/05 04:57:39;;;;;;;6.35;5.65;;;14.50;99.90;;;;;;5114917;28;20377;-59
2023/05/05 05:00:06;;;;;;;6.65;5.93;;;14.60;99.90;;;;;;5115292;28;20174;-58
2023/05/05 05:02:32;;;;;;;6.03;5.53;;;14.60;99.90;;;;;;5096885;28;20237;-63
2023/05/05 05:04:57;;;;;;;7.18;5.30;;;14.60;99.90;;;;;;5114187;28;20565;-59
2023/05/05 05:07:23;;;;;;;5.85;5.05;;;14.60;99.90;;;;;;5114836;28;20712;-58
2023/05/05 05:09:49;;;;;;;5.82;5.22;;;14.70;99.90;;;;;;5114787;28;20180;-59
2023/05/05 05:12:14;;;;;;;5.50;4.93;;;14.60;99.90;;;;;;5114520;28;20224;-59
2023/05/05 05:14:40;;;;;;;5.95;5.00;;;14.60;99.90;;;;;;5114809;28;20185;-59
2023/05/05 05:17:06;;;;;;;5.65;4.60;;;14.60;99.90;;;;;;5114739;28;20176;-59
2023/05/05 05:19:31;;;;;;;5.65;5.05;;;14.60;99.90;;;;;;5114648;28;20169;-60
2023/05/05 05:21:57;;;;;;;6.53;5.32;;;14.50;99.90;;;;;;5114497;28;20212;-59
2023/05/05 05:24:24;;;;;;;5.57;4.97;;;14.60;99.90;;;;;;5096205;28;20181;-59
2023/05/05 05:26:50;;;;;;;7.72;5.35;;;14.60;99.90;;;;;;5114371;28;20169;-59
2023/05/05 05:29:16;;;;;;;5.82;5.07;;;14.70;99.90;;;;;;5114516;28;20177;-59
2023/05/05 05:31:42;;;;;;;5.30;4.80;;;14.70;99.90;;;;;;5114313;28;20563;-59
2023/05/05 05:34:07;;;;;;;6.32;5.10;;;14.90;99.90;;;;;;5114208;28;20208;-59
2023/05/05 05:36:33;;;;;;;5.53;5.03;;;15.00;99.90;;;;;;5095893;28;20177;-59
2023/05/05 05:38:58;;;;;;;5.75;5.10;;;15.10;99.90;;;;;;5113972;28;20184;-56
2023/05/05 05:41:24;;;;;;;5.88;5.18;;;15.10;99.90;;;;;;5112982;28;20188;-59
2023/05/05 05:43:50;;;;;;;6.13;5.00;;;15.10;99.90;;;;;;5114201;28;20187;-59
2023/05/05 05:46:15;;;;;;;8.60;5.30;;;15.20;99.90;;;;;;5114180;28;20180;-58
2023/05/05 05:48:41;;;;;;;5.85;4.78;;;15.30;99.90;;;;;;5113757;28;20679;-59
2023/05/05 05:51:07;;;;;;;5.80;5.20;;;15.30;99.90;;;;;;5114019;28;20277;-58
2023/05/05 05:53:32;;;;;;;6.70;5.30;;;15.40;99.90;;;;;;5113810;28;20571;-58
2023/05/05 05:55:58;;;;;;;6.43;4.82;;;15.50;99.90;;;;;;5113707;28;20214;-59
2023/05/05 05:58:24;;;;;;;7.03;5.00;;;15.50;99.90;;;;;;5113712;28;20636;-60
2023/05/05 06:00:49;;;;;;;5.10;4.60;;;15.50;99.90;;;;;;5113852;28;20267;-59
2023/05/05 06:03:15;;;;;;;9.82;5.57;;;15.50;99.90;;;;;;5113866;28;20260;-59
2023/05/05 06:05:41;;;;;;;6.28;5.15;;;15.50;99.90;;;;;;5113995;28;20624;-59
2023/05/05 06:08:06;;;;;;;6.50;5.20;;;15.50;99.90;;;;;;5113860;28;20257;-59
2023/05/05 06:10:32;;;;;;;5.25;4.75;;;15.70;99.90;;;;;;5113564;28;20169;-59
2023/05/05 06:12:58;;;;;;;5.82;5.07;;;15.80;99.90;;;;;;5113643;28;20200;-59
2023/05/05 06:15:24;;;;;;;5.68;5.15;;;15.80;99.90;;;;;;5113713;28;20616;-59
2023/05/05 06:17:50;;;;;;;4.95;4.45;;;15.80;99.90;;;;;;5113561;28;20205;-57
2023/05/05 06:20:16;;;;;;;4.65;3.97;;;15.90;99.90;;;;;;5113666;28;20230;-59
2023/05/05 06:22:41;;;;;;;5.38;4.85;;;15.80;99.90;;;;;;5095358;28;20232;-59
2023/05/05 06:25:07;;;;;;;5.50;4.93;;;15.90;99.90;;;;;;5113589;28;20656;-60
2023/05/05 06:27:33;;;;;;;7.78;4.72;;;16.10;99.90;;;;;;5113672;28;20246;-59
2023/05/05 06:29:59;;;;;;;6.55;5.13;;;16.20;99.90;;;;;;5113717;28;20205;-59
2023/05/05 06:32:25;;;;;;;5.15;4.45;;;16.40;99.90;;;;;;5113547;28;20229;-59
2023/05/05 06:34:50;;;;;;;5.50;4.47;;;16.50;99.90;;;;;;5113478;28;20593;-59
2023/05/05 06:37:16;;;;;;;5.70;4.53;;;16.60;99.90;;;;;;5113476;28;20181;-60
2023/05/05 06:39:42;;;;;;;5.47;4.03;;;16.60;99.90;;;;;;5113342;28;20166;-60
2023/05/05 06:42:07;;;;;;;5.30;4.38;;;16.90;99.90;;;;;;5113379;28;20187;-59
2023/05/05 06:44:35;;;;;;;5.68;4.40;;;17.10;99.90;;;;;;5113445;28;20646;-59
2023/05/05 06:47:01;;;;;;;5.72;4.25;;;17.40;99.90;;;;;;5113335;28;20185;-59
2023/05/05 06:49:26;;;;;;;6.32;4.53;;;17.50;99.90;;;;;;5113513;28;20614;-59
2023/05/05 06:51:52;;;;;;;6.00;4.30;;;17.70;99.90;;;;;;5113018;28;20204;-59
2023/05/05 06:54:17;;;;;;;4.65;4.20;;;18.00;99.90;;;;;;5113228;28;20181;-59
2023/05/05 06:56:43;;;;;;;6.07;4.20;;;18.10;99.90;;;;;;5113451;28;20176;-57
2023/05/05 06:59:09;;;;;;;6.55;3.92;;;18.30;99.90;;;;;;5091884;28;20253;-57
2023/05/05 07:01:34;;;;;;;5.95;3.90;;;18.40;99.90;;;;;;5092811;28;20206;-57
2023/05/05 07:04:00;;;;;;;4.47;3.55;;;18.20;99.90;;;;;;5092891;28;20244;-57
2023/05/05 07:06:26;;;;;;;4.38;3.85;;;18.20;99.90;;;;;;5092874;28;20177;-57
2023/05/05 07:08:52;;;;;;;4.85;3.83;;;18.20;99.90;;;;;;5092660;28;20637;-57
2023/05/05 07:11:17;;;;;;;4.57;3.40;;;18.20;99.90;;;;;;5093843;28;20210;-57
2023/05/05 07:13:43;;;;;;;5.15;3.80;;;18.20;99.90;;;;;;5095082;28;20230;-57
2023/05/05 07:16:08;;;;;;;4.80;3.58;;;18.30;99.90;;;;;;5113203;28;20170;-59
2023/05/05 07:18:34;;;;;;;4.40;3.97;;;18.30;99.90;;;;;;5113387;28;20170;-57
2023/05/05 07:21:00;;;;;;;4.38;3.10;;;18.40;99.90;;;;;;5113018;28;20204;-57
2023/05/05 07:23:26;;;;;;;5.75;3.47;;;18.30;99.90;;;;;;5112959;28;20616;-60
2023/05/05 07:25:52;;;;;;;4.22;3.20;;;18.30;99.90;;;;;;5112868;28;20272;-60
2023/05/05 07:28:18;;;;;;;4.97;3.45;;;18.20;99.90;;;;;;5114342;28;20636;-58
2023/05/05 07:30:44;;;;;;;4.20;2.90;;;18.20;99.90;;;;;;5116910;28;20161;-57
2023/05/05 07:33:10;;;;;;;3.55;2.88;;;18.00;99.90;;;;;;5116744;28;20343;-57
2023/05/05 07:35:35;;;;;;;4.60;2.67;;;18.00;99.90;;;;;;5116591;28;20536;-57
2023/05/05 07:38:01;;;;;;;4.65;2.92;;;18.00;99.90;;;;;;5116457;28;20177;-57
2023/05/05 07:40:27;;;;;;;5.07;2.40;;;18.10;99.90;;;;;;5116762;28;20265;-57
2023/05/05 07:42:52;;;;;;;3.95;2.50;;;18.20;99.90;;;;;;5116417;28;20270;-58
2023/05/05 07:45:18;;;;;;;4.05;2.67;;;18.30;99.90;;;;;;5116543;28;20180;-58
2023/05/05 07:47:43;;;;;;;5.07;3.33;;;18.40;99.90;;;;;;5116452;28;20185;-57
2023/05/05 07:50:09;;;;;;;5.88;2.97;;;18.40;99.90;;;;;;5116625;28;20217;-57
2023/05/05 07:52:35;;;;;;;6.20;3.00;;;18.40;99.90;;;;;;5115374;28;20254;-58
2023/05/05 07:55:01;;;;;;;5.43;3.50;;;18.30;99.90;;;;;;5116235;28;20177;-58
2023/05/05 07:57:27;;;;;;;5.93;3.55;;;18.30;99.90;;;;;;5115912;28;20181;-58
2023/05/05 07:59:52;;;;;;;4.85;3.75;;;18.20;99.90;;;;;;5115958;28;20196;-58
2023/05/05 08:02:20;;;;;;;4.22;3.13;;;18.10;99.90;;;;;;5116167;28;20177;-58
2023/05/05 08:04:46;;;;;;;3.92;2.90;;;18.10;99.90;;;;;;5097822;28;20524;-58
2023/05/05 08:07:11;;;;;;;4.70;3.00;;;18.00;99.90;;;;;;5115975;28;20166;-58
2023/05/05 08:09:37;;;;;;;5.47;2.83;;;18.10;99.90;;;;;;5115884;28;20578;-58
2023/05/05 08:12:03;;;;;;;4.28;2.50;;;18.00;99.90;;;;;;5115739;28;20743;-58
2023/05/05 08:14:30;;;;;;;3.97;2.95;;;18.00;99.90;;;;;;5115904;28;20540;-58
2023/05/05 08:16:56;;;;;;;5.05;3.17;;;18.00;99.90;;;;;;5097649;28;20273;-58
2023/05/05 08:19:22;;;;;;;6.63;3.35;;;18.00;99.90;;;;;;5115805;28;20219;-58
2023/05/05 08:21:48;;;;;;;5.47;3.00;;;18.00;99.90;;;;;;5115675;28;20170;-58
2023/05/05 08:24:14;;;;;;;6.03;3.92;;;18.10;99.90;;;;;;5115511;28;20222;-58
2023/05/05 08:26:39;;;;;;;6.60;3.80;;;18.00;99.90;;;;;;5115606;28;20548;-58
2023/05/05 08:29:05;;;;;;;6.38;3.50;;;18.00;99.90;;;;;;5116110;28;20181;-59
2023/05/05 08:31:34;;;;;;;6.78;3.90;;;18.00;99.90;;;;;;5115516;28;20208;-58
2023/05/05 08:33:59;;;;;;;5.10;3.63;;;18.00;99.90;;;;;;5115600;28;20181;-60
2023/05/05 08:36:26;;;;;;;4.50;3.28;;;18.00;99.90;;;;;;5115350;28;20529;-60
2023/05/05 08:38:51;;;;;;;4.50;3.10;;;18.00;99.90;;;;;;5115339;28;20528;-60
2023/05/05 08:41:21;;;;;;;5.15;3.42;;;18.00;99.90;;;;;;5114441;28;20169;-59
2023/05/05 08:43:48;;;;;;;4.32;2.90;;;18.10;99.90;;;;;;5115358;28;20173;-57
2023/05/05 08:46:14;;;;;;;6.38;3.25;;;18.10;99.90;;;;;;5115312;28;20452;-57
2023/05/05 08:48:41;;;;;;;5.07;3.40;;;18.10;99.90;;;;;;5114959;28;20177;-58
2023/05/05 08:51:12;;;;;;;4.38;3.20;;;18.10;99.90;;;;;;5115055;28;20493;-57
2023/05/05 08:53:53;;;;;;;5.97;4.40;;;18.00;99.90;;;;;;5115252;28;20183;-57
2023/05/05 08:56:20;;;;;;;6.82;5.25;;;18.00;99.90;;;;;;5115007;28;20188;-58
2023/05/05 08:58:47;;;;;;;6.18;5.05;;;17.90;99.90;;;;;;5114909;28;20172;-58
2023/05/05 09:01:16;;;;;;;4.40;3.70;;;17.90;99.90;;;;;;5114859;28;20177;-57
2023/05/05 09:03:43;;;;;;;5.50;4.07;;;17.80;99.90;;;;;;5114843;28;20178;-57
2023/05/05 09:06:09;;;;;;;5.60;3.13;;;17.80;99.90;;;;;;5115078;28;20185;-58
2023/05/05 09:08:36;;;;;;;6.70;3.80;;;17.80;99.90;;;;;;5114616;28;20520;-57
2023/05/05 09:11:02;;;;;;;8.77;4.63;;;17.70;99.90;;;;;;5114776;28;20259;-57
2023/05/05 09:13:30;;;;;;;6.57;3.80;;;17.50;99.90;;;;;;5114497;28;20556;-57
2023/05/05 09:15:56;;;;;;;6.75;3.78;;;17.00;99.90;;;;;;5114618;28;20173;-57
2023/05/05 09:18:21;;;;;;;1.92;1.00;;;16.80;99.90;;;;;;5115270;28;20180;-57
2023/05/05 09:20:47;;;;;;;3.85;1.75;;;16.50;99.90;;;;;;5114799;28;20195;-57
2023/05/05 09:23:15;;;;;;;2.08;1.73;;;16.10;99.90;;;;;;5114691;28;20177;-58
2023/05/05 09:25:43;;;;;;;2.72;1.65;;;15.70;99.90;;;;;;5114686;28;20639;-57
2023/05/05 09:28:10;;;;;;;1.55;1.10;;;15.70;99.90;;;;;;5114504;28;20223;-58
2023/05/05 09:30:37;;;;;;;1.38;0.80;;;15.70;99.90;;;;;;5114344;28;20181;-58
2023/05/05 09:33:03;;;;;;;1.13;0.90;;;15.50;99.90;;;;;;5114211;28;20197;-58
2023/05/05 09:35:46;;;;;;;2.22;1.00;;;15.50;99.90;;;;;;5114554;28;20176;-58
2023/05/05 09:38:11;;;;;;;0.90;0.70;;;15.50;99.90;;;;;;5113978;28;20169;-58
2023/05/05 09:40:48;;;;;;;3.22;1.20;;;15.60;99.90;;;;;;5114402;28;20252;-59
2023/05/05 09:43:22;;;;;;;1.88;1.00;;;15.80;99.90;;;;;;5113942;28;20180;-58
2023/05/05 09:45:48;;;;;;;2.42;1.00;;;16.00;99.90;;;;;;5114348;28;20631;-58
2023/05/05 09:48:29;;;;;;;1.35;0.95;;;16.20;99.90;;;;;;5114192;28;20192;-58
2023/05/05 09:50:55;;;;;;;1.80;1.20;;;16.50;99.90;;;;;;5113585;28;20217;-58
2023/05/05 09:53:22;;;;;;;4.65;1.30;;;16.70;99.90;;;;;;5113898;28;20189;-58
2023/05/05 09:55:58;;;;;;;1.98;1.40;;;16.90;99.90;;;;;;5114143;28;20644;-58
2023/05/05 09:58:26;;;;;;;3.30;1.75;;;17.10;99.90;;;;;;5114103;28;20168;-58
2023/05/05 10:00:53;;;;;;;2.90;1.50;;;17.10;99.90;;;;;;5113692;28;20256;-58
2023/05/05 10:03:19;;;;;;;3.63;2.03;;;17.40;99.90;;;;;;5113579;28;20174;-58
2023/05/05 10:05:56;;;;;;;2.72;1.52;;;17.60;99.90;;;;;;5113806;28;20644;-58
2023/05/05 10:08:22;;;;;;;3.95;1.50;;;17.60;99.90;;;;;;5113758;28;20227;-59
2023/05/05 10:10:54;;;;;;;2.05;1.40;;;17.50;99.90;;;;;;5113908;28;20268;-59
2023/05/05 10:13:21;;;;;;;2.28;1.20;;;17.70;99.90;;;;;;5113500;28;20177;-58
2023/05/05 10:15:52;;;;;;;2.13;1.25;;;17.80;99.90;;;;;;5113703;28;20180;-59
2023/05/05 10:18:30;;;;;;;3.47;1.60;;;17.80;99.90;;;;;;5113769;28;20198;-58
2023/05/05 10:21:02;;;;;;;2.97;1.40;;;18.00;99.90;;;;;;5113608;28;20176;-59
2023/05/05 10:23:40;;;;;;;2.20;1.30;;;18.10;99.90;;;;;;5113991;28;20497;-58
2023/05/05 10:26:06;;;;;;;2.22;1.73;;;18.30;99.90;;;;;;5113625;28;20204;-59
2023/05/05 10:28:55;;;;;;;3.20;1.70;;;18.50;99.90;;;;;;5113971;28;20532;-59
2023/05/05 10:31:50;;;;;;;2.95;2.28;;;18.60;99.90;;;;;;5113530;28;20207;-59
2023/05/05 10:34:58;;;;;;;3.67;2.92;;;18.60;99.90;;;;;;5108435;28;20672;-59
2023/05/05 10:37:25;;;;;;;4.95;3.65;;;18.60;99.90;;;;;;5100572;28;20528;-58
2023/05/05 10:39:53;;;;;;;5.70;4.05;;;18.70;99.90;;;;;;5113678;28;20169;-59
2023/05/05 10:42:21;;;;;;;4.28;3.72;;;18.70;99.90;;;;;;5113448;28;20208;-59
2023/05/05 10:44:47;;;;;;;7.65;4.28;;;18.80;99.90;;;;;;5113657;28;20551;-59
2023/05/05 10:47:17;;;;;;;4.97;4.40;;;18.80;99.90;;;;;;5113504;28;20268;-59
2023/05/05 10:50:05;;;;;;;6.50;4.38;;;18.80;99.90;;;;;;5113134;28;20225;-59
2023/05/05 10:52:52;;;;;;;6.55;5.35;;;18.90;99.90;;;;;;5113440;28;20325;-57
2023/05/05 10:55:38;;;;;;;6.55;5.55;;;19.00;99.90;;;;;;5112155;28;20181;-57
2023/05/05 10:58:04;;;;;;;9.70;7.00;;;18.80;99.90;;;;;;5113407;28;20211;-58
2023/05/05 11:00:38;;;;;;;9.73;8.77;;;18.60;99.90;;;;;;5112990;28;20219;-59
2023/05/05 11:03:16;;;;;;;10.73;9.63;;;18.40;99.90;;;;;;5114264;28;20207;-59
2023/05/05 11:06:07;;;;;;;11.50;10.27;;;18.20;99.90;;;;;;5117403;28;20215;-59
2023/05/05 11:08:37;;;;;;;10.20;8.57;;;18.00;99.90;;;;;;5117088;28;20639;-58
2023/05/05 11:11:04;;;;;;;9.45;7.40;;;17.90;99.90;;;;;;5116924;28;20188;-58
2023/05/05 11:13:30;;;;;;;7.22;6.07;;;17.80;99.90;;;;;;5117028;28;20669;-59
2023/05/05 11:15:57;;;;;;;7.80;7.00;;;17.80;99.90;;;;;;5116950;28;20629;-59
2023/05/05 11:18:43;;;;;;;8.00;7.20;;;17.80;99.90;;;;;;5117111;28;20254;-59
2023/05/05 11:21:16;;;;;;;8.57;7.78;;;17.80;99.90;;;;;;5116940;28;20201;-58
2023/05/05 11:23:46;;;;;;;8.10;7.30;;;17.80;99.90;;;;;;5117039;28;20260;-59
2023/05/05 11:26:13;;;;;;;12.32;9.77;;;18.00;99.90;;;;;;5117007;28;20166;-57
2023/05/05 11:29:00;;;;;;;11.48;9.52;;;18.40;99.90;;;;;;5116584;28;20239;-58
2023/05/05 11:31:27;;;;;;;12.13;9.50;;;18.90;99.90;;;;;;5116719;28;20189;-57
2023/05/05 11:33:52;;;;;;;9.43;7.05;;;19.30;99.90;;;;;;5116265;28;20659;-57
2023/05/05 11:36:20;;;;;;;6.13;5.43;;;19.50;99.90;;;;;;5116818;28;20174;-59
2023/05/05 11:39:04;;;;;;;8.38;5.70;;;19.90;99.90;;;;;;5116427;28;20179;-58
2023/05/05 11:41:33;;;;;;;7.03;5.90;;;20.00;99.90;;;;;;5116731;28;20173;-58
2023/05/05 11:44:19;;;;;;;7.10;5.43;;;20.00;99.90;;;;;;5116413;28;20559;-57
2023/05/05 11:46:50;;;;;;;5.07;4.57;;;20.00;99.90;;;;;;5116615;28;20169;-59
2023/05/05 11:49:30;;;;;;;4.72;3.90;;;19.80;99.90;;;;;;5116504;28;20225;-58
2023/05/05 11:51:56;;;;;;;4.80;3.60;;;19.80;99.90;;;;;;5116568;28;20203;-57
2023/05/05 11:54:23;;;;;;;5.85;3.60;;;19.50;99.90;;;;;;5116507;28;20177;-57
2023/05/05 11:56:53;;;;;;;4.05;3.42;;;19.60;99.90;;;;;;5116471;28;20208;-58
2023/05/05 11:59:19;;;;;;;5.78;3.60;;;19.60;99.90;;;;;;5116382;28;20170;-58
2023/05/05 12:01:44;;;;;;;3.08;2.88;;;19.50;99.90;;;;;;5116443;28;20646;-58
2023/05/05 12:04:11;;;;;;;5.35;3.67;;;19.60;99.90;;;;;;5115112;28;20309;-58
2023/05/05 12:06:38;;;;;;;4.65;3.60;;;19.50;99.90;;;;;;5116075;28;20264;-58
2023/05/05 12:09:04;;;;;;;6.65;4.40;;;19.60;99.90;;;;;;5115688;28;20640;-57
2023/05/05 12:11:29;;;;;;;5.30;4.25;;;19.80;99.90;;;;;;5115874;28;20192;-57
2023/05/05 12:14:10;;;;;;;4.28;3.50;;;20.00;99.90;;;;;;5115987;28;20260;-58
2023/05/05 12:16:37;;;;;;;4.47;2.95;;;20.40;99.90;;;;;;5116065;28;20184;-58
2023/05/05 12:19:07;;;;;;;4.40;2.90;;;20.30;99.90;;;;;;5115680;28;20552;-58
2023/05/05 12:21:37;;;;;;;5.95;3.53;;;20.20;99.90;;;;;;5115555;27;20693;-57
2023/05/05 12:24:02;;;;;;;6.00;3.95;;;20.20;99.90;;;;;;5115666;28;20169;-57
2023/05/05 12:26:31;;;;;;;7.28;4.80;;;20.20;99.90;;;;;;5115801;28;20222;-57
2023/05/05 12:29:01;;;;;;;7.80;3.75;;;20.30;99.90;;;;;;5115832;28;20174;-57
2023/05/05 12:31:37;;;;;;;7.43;4.18;;;20.20;99.90;;;;;;5115477;28;20197;-57
2023/05/05 12:34:10;;;;;;;5.32;3.80;;;20.00;99.90;;;;;;5115283;28;20173;-57
2023/05/05 12:36:36;;;;;;;4.82;3.58;;;19.80;99.90;;;;;;5115383;28;20257;-57
2023/05/05 12:39:05;;;;;;;4.60;3.55;;;19.40;99.90;;;;;;5115432;28;20642;-57
2023/05/05 12:41:32;;;;;;;4.65;3.40;;;19.10;99.90;;;;;;5115492;28;20184;-57
2023/05/05 12:43:58;;;;;;;3.58;2.60;;;19.10;99.90;;;;;;5115411;27;20639;-57
2023/05/05 12:46:25;;;;;;;2.90;2.17;;;19.10;99.90;;;;;;5115262;28;20173;-57
2023/05/05 12:49:04;;;;;;;3.03;2.10;;;19.00;99.90;;;;;;5115071;28;20217;-57
2023/05/05 12:51:34;;;;;;;3.35;2.30;;;19.00;99.90;;;;;;5115210;28;20690;-57
2023/05/05 12:54:18;;;;;;;3.55;2.03;;;18.80;99.90;;;;;;5115216;28;20551;-58